sensor_id;sensor_type;location;lat;lon;timestamp;temperature;humidity
51029;DHT22;37054;52.054;8.600;2022-11-11T00:02:03;14.20;53.50
51029;DHT22;37054;52.054;8.600;2022-11-11T00:04:28;14.20;53.60
51029;DHT22;37054;52.054;8.600;2022-11-11T00:06:55;14.30;53.80
51029;DHT22;37054;52.054;8.600;2022-11-11T00:09:20;14.30;53.70
51029;DHT22;37054;52.054;8.600;2022-11-11T00:11:46;14.30;53.70
51029;DHT22;37054;52.054;8.600;2022-11-11T00:14:11;14.20;53.50
51029;DHT22;37054;52.054;8.600;2022-11-11T00:16:37;14.20;53.40
51029;DHT22;37054;52.054;8.600;2022-11-11T00:19:21;14.20;53.30
51029;DHT22;37054;52.054;8.600;2022-11-11T00:22:09;14.20;53.40
51029;DHT22;37054;52.054;8.600;2022-11-11T00:24:55;14.10;53.70
51029;DHT22;37054;52.054;8.600;2022-11-11T00:27:34;14.10;53.50
51029;DHT22;37054;52.054;8.600;2022-11-11T00:29:59;14.00;53.30
51029;DHT22;37054;52.054;8.600;2022-11-11T00:32:25;14.00;53.30
51029;DHT22;37054;52.054;8.600;2022-11-11T00:34:53;14.00;53.50
51029;DHT22;37054;52.054;8.600;2022-11-11T00:37:38;14.00;53.50
51029;DHT22;37054;52.054;8.600;2022-11-11T00:40:04;13.90;53.90
51029;DHT22;37054;52.054;8.600;2022-11-11T00:42:29;14.00;54.00
51029;DHT22;37054;52.054;8.600;2022-11-11T00:44:55;13.90;54.10
51029;DHT22;37054;52.054;8.600;2022-11-11T00:47:20;14.00;54.40
51029;DHT22;37054;52.054;8.600;2022-11-11T00:50:05;14.10;54.60
51029;DHT22;37054;52.054;8.600;2022-11-11T00:52:50;14.10;54.40
51029;DHT22;37054;52.054;8.600;2022-11-11T00:55:16;14.20;54.10
51029;DHT22;37054;52.054;8.600;2022-11-11T00:57:41;14.20;54.10
51029;DHT22;37054;52.054;8.600;2022-11-11T01:00:07;14.20;54.00
51029;DHT22;37054;52.054;8.600;2022-11-11T01:02:32;14.30;54.00
51029;DHT22;37054;52.054;8.600;2022-11-11T01:04:58;14.30;53.80
51029;DHT22;37054;52.054;8.600;2022-11-11T01:07:24;14.30;53.60
51029;DHT22;37054;52.054;8.600;2022-11-11T01:09:50;14.30;53.50
51029;DHT22;37054;52.054;8.600;2022-11-11T01:12:15;14.30;53.50
51029;DHT22;37054;52.054;8.600;2022-11-11T01:14:41;14.40;53.40
51029;DHT22;37054;52.054;8.600;2022-11-11T01:17:06;14.30;53.40
51029;DHT22;37054;52.054;8.600;2022-11-11T01:19:34;14.30;53.50
51029;DHT22;37054;52.054;8.600;2022-11-11T01:21:59;14.40;53.40
51029;DHT22;37054;52.054;8.600;2022-11-11T01:24:25;14.40;53.30
51029;DHT22;37054;52.054;8.600;2022-11-11T01:26:50;14.40;53.20
51029;DHT22;37054;52.054;8.600;2022-11-11T01:29:16;14.40;53.10
51029;DHT22;37054;52.054;8.600;2022-11-11T01:31:41;14.40;53.10
51029;DHT22;37054;52.054;8.600;2022-11-11T01:34:07;14.50;53.10
51029;DHT22;37054;52.054;8.600;2022-11-11T01:36:32;14.40;53.10
51029;DHT22;37054;52.054;8.600;2022-11-11T01:38:58;14.40;53.00
51029;DHT22;37054;52.054;8.600;2022-11-11T01:41:28;14.50;52.80
51029;DHT22;37054;52.054;8.600;2022-11-11T01:47:20;14.40;52.90
51029;DHT22;37054;52.054;8.600;2022-11-11T01:49:28;14.40;52.90
51029;DHT22;37054;52.054;8.600;2022-11-11T01:54:26;14.40;52.80
51029;DHT22;37054;52.054;8.600;2022-11-11T01:56:54;14.40;52.90
51029;DHT22;37054;52.054;8.600;2022-11-11T01:59:20;14.40;52.90
51029;DHT22;37054;52.054;8.600;2022-11-11T02:01:46;14.40;52.80
51029;DHT22;37054;52.054;8.600;2022-11-11T02:04:12;14.40;52.80
51029;DHT22;37054;52.054;8.600;2022-11-11T02:06:57;14.30;52.70
51029;DHT22;37054;52.054;8.600;2022-11-11T02:09:24;14.30;52.70
51029;DHT22;37054;52.054;8.600;2022-11-11T02:11:50;14.30;53.00
51029;DHT22;37054;52.054;8.600;2022-11-11T02:14:37;14.30;52.90
51029;DHT22;37054;52.054;8.600;2022-11-11T02:17:11;14.20;53.20
51029;DHT22;37054;52.054;8.600;2022-11-11T02:19:43;14.30;53.20
51029;DHT22;37054;52.054;8.600;2022-11-11T02:22:10;14.30;52.80
51029;DHT22;37054;52.054;8.600;2022-11-11T02:24:38;14.30;52.60
51029;DHT22;37054;52.054;8.600;2022-11-11T02:27:04;14.30;52.60
51029;DHT22;37054;52.054;8.600;2022-11-11T02:29:31;14.30;53.10
51029;DHT22;37054;52.054;8.600;2022-11-11T02:31:57;14.30;53.00
51029;DHT22;37054;52.054;8.600;2022-11-11T02:34:32;14.30;52.90
51029;DHT22;37054;52.054;8.600;2022-11-11T02:36:58;14.40;52.80
51029;DHT22;37054;52.054;8.600;2022-11-11T02:39:24;14.30;52.80
51029;DHT22;37054;52.054;8.600;2022-11-11T02:41:50;14.30;52.60
51029;DHT22;37054;52.054;8.600;2022-11-11T02:44:22;14.30;52.60
51029;DHT22;37054;52.054;8.600;2022-11-11T02:46:48;14.30;52.40
51029;DHT22;37054;52.054;8.600;2022-11-11T02:49:13;14.30;52.50
51029;DHT22;37054;52.054;8.600;2022-11-11T02:51:39;14.30;52.60
51029;DHT22;37054;52.054;8.600;2022-11-11T02:54:04;14.30;52.60
51029;DHT22;37054;52.054;8.600;2022-11-11T02:56:30;14.30;52.60
51029;DHT22;37054;52.054;8.600;2022-11-11T02:59:14;14.30;52.80
51029;DHT22;37054;52.054;8.600;2022-11-11T03:01:40;14.30;52.70
51029;DHT22;37054;52.054;8.600;2022-11-11T03:04:05;14.30;52.50
51029;DHT22;37054;52.054;8.600;2022-11-11T03:06:31;14.30;52.30
51029;DHT22;37054;52.054;8.600;2022-11-11T03:08:57;14.20;52.30
51029;DHT22;37054;52.054;8.600;2022-11-11T03:11:22;14.20;52.40
51029;DHT22;37054;52.054;8.600;2022-11-11T03:13:57;14.20;52.30
51029;DHT22;37054;52.054;8.600;2022-11-11T03:16:22;14.10;52.30
51029;DHT22;37054;52.054;8.600;2022-11-11T03:19:07;14.10;52.50
51029;DHT22;37054;52.054;8.600;2022-11-11T03:21:32;14.00;52.50
51029;DHT22;37054;52.054;8.600;2022-11-11T03:23:58;14.10;52.60
51029;DHT22;37054;52.054;8.600;2022-11-11T03:26:23;14.00;52.60
51029;DHT22;37054;52.054;8.600;2022-11-11T03:28:49;14.10;52.90
51029;DHT22;37054;52.054;8.600;2022-11-11T03:31:14;14.00;52.90
51029;DHT22;37054;52.054;8.600;2022-11-11T03:33:40;14.20;53.00
51029;DHT22;37054;52.054;8.600;2022-11-11T03:36:06;14.20;52.80
51029;DHT22;37054;52.054;8.600;2022-11-11T03:38:31;14.20;52.80
51029;DHT22;37054;52.054;8.600;2022-11-11T03:40:57;14.30;52.70
51029;DHT22;37054;52.054;8.600;2022-11-11T03:43:23;14.30;52.60
51029;DHT22;37054;52.054;8.600;2022-11-11T03:45:53;14.30;52.60
51029;DHT22;37054;52.054;8.600;2022-11-11T03:48:19;14.30;52.70
51029;DHT22;37054;52.054;8.600;2022-11-11T03:50:45;14.30;52.60
51029;DHT22;37054;52.054;8.600;2022-11-11T03:53:12;14.30;52.60
51029;DHT22;37054;52.054;8.600;2022-11-11T03:55:39;14.30;52.50
51029;DHT22;37054;52.054;8.600;2022-11-11T03:58:04;14.40;52.50
51029;DHT22;37054;52.054;8.600;2022-11-11T04:00:30;14.40;52.40
51029;DHT22;37054;52.054;8.600;2022-11-11T04:06:09;14.40;52.30
51029;DHT22;37054;52.054;8.600;2022-11-11T04:08:53;14.40;52.50
51029;DHT22;37054;52.054;8.600;2022-11-11T04:11:41;14.40;52.70
51029;DHT22;37054;52.054;8.600;2022-11-11T04:14:08;14.40;52.50
51029;DHT22;37054;52.054;8.600;2022-11-11T04:16:53;14.50;52.40
51029;DHT22;37054;52.054;8.600;2022-11-11T04:19:18;14.50;52.40
51029;DHT22;37054;52.054;8.600;2022-11-11T04:22:03;14.60;52.20
51029;DHT22;37054;52.054;8.600;2022-11-11T04:24:28;14.50;52.30
51029;DHT22;37054;52.054;8.600;2022-11-11T04:27:13;14.60;52.20
51029;DHT22;37054;52.054;8.600;2022-11-11T04:29:39;14.60;52.00
51029;DHT22;37054;52.054;8.600;2022-11-11T04:32:06;14.70;52.00
51029;DHT22;37054;52.054;8.600;2022-11-11T04:34:51;14.70;51.80
51029;DHT22;37054;52.054;8.600;2022-11-11T04:37:17;14.70;51.70
51029;DHT22;37054;52.054;8.600;2022-11-11T04:39:43;14.80;51.60
51029;DHT22;37054;52.054;8.600;2022-11-11T04:42:27;14.80;51.70
51029;DHT22;37054;52.054;8.600;2022-11-11T04:44:53;14.80;51.50
51029;DHT22;37054;52.054;8.600;2022-11-11T04:47:37;14.80;51.40
51029;DHT22;37054;52.054;8.600;2022-11-11T04:50:03;14.80;51.30
51029;DHT22;37054;52.054;8.600;2022-11-11T04:52:29;14.80;51.10
51029;DHT22;37054;52.054;8.600;2022-11-11T04:54:55;14.80;51.30
51029;DHT22;37054;52.054;8.600;2022-11-11T04:57:43;14.90;51.20
51029;DHT22;37054;52.054;8.600;2022-11-11T05:00:09;14.80;51.10
51029;DHT22;37054;52.054;8.600;2022-11-11T05:02:35;14.90;51.10
51029;DHT22;37054;52.054;8.600;2022-11-11T05:05:20;14.90;51.00
51029;DHT22;37054;52.054;8.600;2022-11-11T05:07:45;14.80;51.00
51029;DHT22;37054;52.054;8.600;2022-11-11T05:10:29;14.80;51.00
51029;DHT22;37054;52.054;8.600;2022-11-11T05:12:55;14.80;51.00
51029;DHT22;37054;52.054;8.600;2022-11-11T05:15:41;14.80;50.90
51029;DHT22;37054;52.054;8.600;2022-11-11T05:18:25;14.80;50.90
51029;DHT22;37054;52.054;8.600;2022-11-11T05:21:14;14.70;51.00
51029;DHT22;37054;52.054;8.600;2022-11-11T05:23:46;14.70;51.00
51029;DHT22;37054;52.054;8.600;2022-11-11T05:26:30;14.70;51.00
51029;DHT22;37054;52.054;8.600;2022-11-11T05:28:56;14.70;51.00
51029;DHT22;37054;52.054;8.600;2022-11-11T05:31:22;14.70;51.00
51029;DHT22;37054;52.054;8.600;2022-11-11T05:33:47;14.70;51.00
51029;DHT22;37054;52.054;8.600;2022-11-11T05:36:14;14.70;51.20
51029;DHT22;37054;52.054;8.600;2022-11-11T05:38:40;14.70;51.10
51029;DHT22;37054;52.054;8.600;2022-11-11T05:41:06;14.70;51.00
51029;DHT22;37054;52.054;8.600;2022-11-11T05:43:32;14.70;51.00
51029;DHT22;37054;52.054;8.600;2022-11-11T05:45:57;14.60;50.90
51029;DHT22;37054;52.054;8.600;2022-11-11T05:48:23;14.70;50.90
51029;DHT22;37054;52.054;8.600;2022-11-11T05:50:48;14.70;50.90
51029;DHT22;37054;52.054;8.600;2022-11-11T05:53:14;14.60;50.90
51029;DHT22;37054;52.054;8.600;2022-11-11T05:55:39;14.60;50.90
51029;DHT22;37054;52.054;8.600;2022-11-11T05:58:05;14.60;51.00
51029;DHT22;37054;52.054;8.600;2022-11-11T06:00:30;14.50;51.10
51029;DHT22;37054;52.054;8.600;2022-11-11T06:03:02;14.50;51.00
51029;DHT22;37054;52.054;8.600;2022-11-11T06:05:28;14.50;51.10
51029;DHT22;37054;52.054;8.600;2022-11-11T06:07:54;14.50;51.10
51029;DHT22;37054;52.054;8.600;2022-11-11T06:10:25;14.50;51.00
51029;DHT22;37054;52.054;8.600;2022-11-11T06:12:59;14.50;50.90
51029;DHT22;37054;52.054;8.600;2022-11-11T06:15:41;14.40;50.80
51029;DHT22;37054;52.054;8.600;2022-11-11T06:18:10;14.40;50.80
51029;DHT22;37054;52.054;8.600;2022-11-11T06:20:41;14.30;50.90
51029;DHT22;37054;52.054;8.600;2022-11-11T06:23:06;14.30;51.40
51029;DHT22;37054;52.054;8.600;2022-11-11T06:25:32;14.30;51.40
51029;DHT22;37054;52.054;8.600;2022-11-11T06:28:17;14.30;51.20
51029;DHT22;37054;52.054;8.600;2022-11-11T06:30:46;14.30;51.30
51029;DHT22;37054;52.054;8.600;2022-11-11T06:33:17;14.30;51.20
51029;DHT22;37054;52.054;8.600;2022-11-11T06:35:45;14.30;51.40
51029;DHT22;37054;52.054;8.600;2022-11-11T06:38:11;14.30;51.30
51029;DHT22;37054;52.054;8.600;2022-11-11T06:40:37;14.30;51.20
51029;DHT22;37054;52.054;8.600;2022-11-11T06:43:02;14.30;51.00
51029;DHT22;37054;52.054;8.600;2022-11-11T06:45:30;14.30;51.00
51029;DHT22;37054;52.054;8.600;2022-11-11T06:48:03;14.20;51.00
51029;DHT22;37054;52.054;8.600;2022-11-11T06:50:30;14.20;51.10
51029;DHT22;37054;52.054;8.600;2022-11-11T06:52:56;14.20;51.30
51029;DHT22;37054;52.054;8.600;2022-11-11T06:55:30;14.20;51.40
51029;DHT22;37054;52.054;8.600;2022-11-11T06:58:02;14.20;51.40
51029;DHT22;37054;52.054;8.600;2022-11-11T07:00:28;14.30;51.30
51029;DHT22;37054;52.054;8.600;2022-11-11T07:02:54;14.30;51.30
51029;DHT22;37054;52.054;8.600;2022-11-11T07:05:19;14.30;51.40
51029;DHT22;37054;52.054;8.600;2022-11-11T07:07:48;14.30;51.50
51029;DHT22;37054;52.054;8.600;2022-11-11T07:10:14;14.30;51.50
51029;DHT22;37054;52.054;8.600;2022-11-11T07:12:41;14.40;51.70
51029;DHT22;37054;52.054;8.600;2022-11-11T07:15:06;14.50;51.60
51029;DHT22;37054;52.054;8.600;2022-11-11T07:17:32;14.50;51.60
51029;DHT22;37054;52.054;8.600;2022-11-11T07:19:58;14.60;51.60
51029;DHT22;37054;52.054;8.600;2022-11-11T07:22:23;14.70;51.60
51029;DHT22;37054;52.054;8.600;2022-11-11T07:24:49;14.80;51.50
51029;DHT22;37054;52.054;8.600;2022-11-11T07:27:15;14.90;51.40
51029;DHT22;37054;52.054;8.600;2022-11-11T07:29:40;15.00;51.40
51029;DHT22;37054;52.054;8.600;2022-11-11T07:32:09;15.10;51.30
51029;DHT22;37054;52.054;8.600;2022-11-11T07:34:34;15.10;51.20
51029;DHT22;37054;52.054;8.600;2022-11-11T07:37:00;15.20;51.00
51029;DHT22;37054;52.054;8.600;2022-11-11T07:39:25;15.30;50.90
51029;DHT22;37054;52.054;8.600;2022-11-11T07:41:51;15.40;50.80
51029;DHT22;37054;52.054;8.600;2022-11-11T07:44:17;15.50;50.60
51029;DHT22;37054;52.054;8.600;2022-11-11T07:46:42;15.60;50.60
51029;DHT22;37054;52.054;8.600;2022-11-11T07:49:08;15.70;50.30
51029;DHT22;37054;52.054;8.600;2022-11-11T07:51:33;15.80;50.20
51029;DHT22;37054;52.054;8.600;2022-11-11T07:53:59;15.90;49.90
51029;DHT22;37054;52.054;8.600;2022-11-11T07:56:24;16.00;49.70
51029;DHT22;37054;52.054;8.600;2022-11-11T07:58:50;16.10;49.60
51029;DHT22;37054;52.054;8.600;2022-11-11T08:01:16;16.20;49.20
51029;DHT22;37054;52.054;8.600;2022-11-11T08:03:42;16.30;48.80
51029;DHT22;37054;52.054;8.600;2022-11-11T08:06:19;16.40;48.60
51029;DHT22;37054;52.054;8.600;2022-11-11T08:08:45;16.50;48.40
51029;DHT22;37054;52.054;8.600;2022-11-11T08:11:11;16.60;48.40
51029;DHT22;37054;52.054;8.600;2022-11-11T08:13:37;16.70;48.00
51029;DHT22;37054;52.054;8.600;2022-11-11T08:16:06;16.70;47.40
51029;DHT22;37054;52.054;8.600;2022-11-11T08:18:32;16.90;47.30
51029;DHT22;37054;52.054;8.600;2022-11-11T08:20:59;17.00;47.00
51029;DHT22;37054;52.054;8.600;2022-11-11T08:23:24;17.10;46.70
51029;DHT22;37054;52.054;8.600;2022-11-11T08:28:26;17.30;46.50
51029;DHT22;37054;52.054;8.600;2022-11-11T08:30:51;17.40;46.10
51029;DHT22;37054;52.054;8.600;2022-11-11T08:33:17;17.50;46.00
51029;DHT22;37054;52.054;8.600;2022-11-11T08:35:43;17.50;45.70
51029;DHT22;37054;52.054;8.600;2022-11-11T08:38:08;17.70;45.70
51029;DHT22;37054;52.054;8.600;2022-11-11T08:40:34;17.80;45.60
51029;DHT22;37054;52.054;8.600;2022-11-11T08:43:00;17.90;45.20
51029;DHT22;37054;52.054;8.600;2022-11-11T08:45:26;18.00;45.30
51029;DHT22;37054;52.054;8.600;2022-11-11T08:47:51;18.10;45.00
51029;DHT22;37054;52.054;8.600;2022-11-11T08:50:17;18.30;44.90
51029;DHT22;37054;52.054;8.600;2022-11-11T08:52:46;18.40;44.40
51029;DHT22;37054;52.054;8.600;2022-11-11T08:55:12;18.50;44.10
51029;DHT22;37054;52.054;8.600;2022-11-11T08:57:38;18.60;43.90
51029;DHT22;37054;52.054;8.600;2022-11-11T09:00:04;18.70;43.70
51029;DHT22;37054;52.054;8.600;2022-11-11T09:02:30;18.80;43.50
51029;DHT22;37054;52.054;8.600;2022-11-11T09:04:55;18.90;43.30
51029;DHT22;37054;52.054;8.600;2022-11-11T09:07:21;19.00;42.90
51029;DHT22;37054;52.054;8.600;2022-11-11T09:09:46;19.10;42.70
51029;DHT22;37054;52.054;8.600;2022-11-11T09:12:12;19.20;42.10
51029;DHT22;37054;52.054;8.600;2022-11-11T09:14:38;19.30;42.40
51029;DHT22;37054;52.054;8.600;2022-11-11T09:17:04;19.50;42.30
51029;DHT22;37054;52.054;8.600;2022-11-11T09:19:30;19.70;42.50
51029;DHT22;37054;52.054;8.600;2022-11-11T09:22:00;19.80;42.20
51029;DHT22;37054;52.054;8.600;2022-11-11T09:24:26;19.90;41.60
51029;DHT22;37054;52.054;8.600;2022-11-11T09:26:52;20.00;41.40
51029;DHT22;37054;52.054;8.600;2022-11-11T09:29:18;20.10;41.40
51029;DHT22;37054;52.054;8.600;2022-11-11T09:31:44;20.20;40.70
51029;DHT22;37054;52.054;8.600;2022-11-11T09:34:09;20.30;40.70
51029;DHT22;37054;52.054;8.600;2022-11-11T09:36:35;20.30;40.10
51029;DHT22;37054;52.054;8.600;2022-11-11T09:39:01;20.30;39.90
51029;DHT22;37054;52.054;8.600;2022-11-11T09:43:56;20.50;39.60
51029;DHT22;37054;52.054;8.600;2022-11-11T09:51:26;20.80;38.80
51029;DHT22;37054;52.054;8.600;2022-11-11T09:53:56;20.90;38.80
51029;DHT22;37054;52.054;8.600;2022-11-11T09:56:23;21.10;38.60
51029;DHT22;37054;52.054;8.600;2022-11-11T09:58:51;21.20;37.50
51029;DHT22;37054;52.054;8.600;2022-11-11T10:01:27;21.30;37.30
51029;DHT22;37054;52.054;8.600;2022-11-11T10:03:59;21.40;37.60
51029;DHT22;37054;52.054;8.600;2022-11-11T10:06:30;21.60;37.30
51029;DHT22;37054;52.054;8.600;2022-11-11T10:09:00;21.70;37.20
51029;DHT22;37054;52.054;8.600;2022-11-11T10:11:46;22.00;37.10
51029;DHT22;37054;52.054;8.600;2022-11-11T10:14:13;22.00;35.90
51029;DHT22;37054;52.054;8.600;2022-11-11T10:16:41;22.20;36.10
51029;DHT22;37054;52.054;8.600;2022-11-11T10:19:21;22.30;35.60
51029;DHT22;37054;52.054;8.600;2022-11-11T10:21:58;22.50;35.40
51029;DHT22;37054;52.054;8.600;2022-11-11T10:24:31;22.70;35.40
51029;DHT22;37054;52.054;8.600;2022-11-11T10:27:06;22.80;34.60
51029;DHT22;37054;52.054;8.600;2022-11-11T10:29:42;23.10;34.90
51029;DHT22;37054;52.054;8.600;2022-11-11T10:34:34;23.50;34.30
51029;DHT22;37054;52.054;8.600;2022-11-11T10:37:00;23.80;33.80
51029;DHT22;37054;52.054;8.600;2022-11-11T10:42:12;24.30;33.60
51029;DHT22;37054;52.054;8.600;2022-11-11T10:44:40;24.50;33.10
51029;DHT22;37054;52.054;8.600;2022-11-11T10:47:12;24.50;31.90
51029;DHT22;37054;52.054;8.600;2022-11-11T10:49:40;24.60;32.20
51029;DHT22;37054;52.054;8.600;2022-11-11T10:52:17;24.80;32.30
51029;DHT22;37054;52.054;8.600;2022-11-11T10:54:48;24.90;32.50
51029;DHT22;37054;52.054;8.600;2022-11-11T10:59:48;25.20;32.00
51029;DHT22;37054;52.054;8.600;2022-11-11T11:02:21;25.30;31.60
51029;DHT22;37054;52.054;8.600;2022-11-11T11:04:51;25.30;31.60
51029;DHT22;37054;52.054;8.600;2022-11-11T11:07:19;25.20;31.40
51029;DHT22;37054;52.054;8.600;2022-11-11T11:10:02;25.10;31.10
51029;DHT22;37054;52.054;8.600;2022-11-11T11:15:03;25.10;31.40
51029;DHT22;37054;52.054;8.600;2022-11-11T11:17:52;25.00;31.10
51029;DHT22;37054;52.054;8.600;2022-11-11T11:20:16;25.00;30.80
51029;DHT22;37054;52.054;8.600;2022-11-11T11:25:10;24.90;31.00
51029;DHT22;37054;52.054;8.600;2022-11-11T11:27:36;24.90;31.20
51029;DHT22;37054;52.054;8.600;2022-11-11T11:30:09;24.90;31.20
51029;DHT22;37054;52.054;8.600;2022-11-11T11:32:35;24.90;31.30
51029;DHT22;37054;52.054;8.600;2022-11-11T11:35:00;25.00;31.50
51029;DHT22;37054;52.054;8.600;2022-11-11T11:37:26;25.20;31.60
51029;DHT22;37054;52.054;8.600;2022-11-11T11:39:59;25.20;31.30
51029;DHT22;37054;52.054;8.600;2022-11-11T11:42:31;25.10;31.30
51029;DHT22;37054;52.054;8.600;2022-11-11T11:44:56;25.20;31.60
51029;DHT22;37054;52.054;8.600;2022-11-11T11:52:49;25.30;31.70
51029;DHT22;37054;52.054;8.600;2022-11-11T11:55:18;25.20;31.30
51029;DHT22;37054;52.054;8.600;2022-11-11T11:57:52;24.90;31.20
51029;DHT22;37054;52.054;8.600;2022-11-11T12:00:24;24.80;31.40
51029;DHT22;37054;52.054;8.600;2022-11-11T12:03:07;24.70;31.70
51029;DHT22;37054;52.054;8.600;2022-11-11T12:05:42;24.70;32.20
51029;DHT22;37054;52.054;8.600;2022-11-11T12:10:46;24.10;32.10
51029;DHT22;37054;52.054;8.600;2022-11-11T12:16:01;23.50;32.80
51029;DHT22;37054;52.054;8.600;2022-11-11T12:21:21;23.00;33.60
51029;DHT22;37054;52.054;8.600;2022-11-11T12:26:48;22.70;34.20
51029;DHT22;37054;52.054;8.600;2022-11-11T12:34:42;22.40;34.80
51029;DHT22;37054;52.054;8.600;2022-11-11T12:37:53;22.30;35.00
51029;DHT22;37054;52.054;8.600;2022-11-11T12:42:55;22.40;35.50
51029;DHT22;37054;52.054;8.600;2022-11-11T12:45:25;22.40;35.60
51029;DHT22;37054;52.054;8.600;2022-11-11T12:50:25;22.40;35.60
51029;DHT22;37054;52.054;8.600;2022-11-11T12:53:04;22.40;35.50
51029;DHT22;37054;52.054;8.600;2022-11-11T12:58:17;22.30;35.10
51029;DHT22;37054;52.054;8.600;2022-11-11T13:00:57;22.30;35.10
51029;DHT22;37054;52.054;8.600;2022-11-11T13:03:48;22.30;35.20
51029;DHT22;37054;52.054;8.600;2022-11-11T13:06:28;22.30;35.20
51029;DHT22;37054;52.054;8.600;2022-11-11T13:11:51;22.30;35.10
51029;DHT22;37054;52.054;8.600;2022-11-11T13:17:05;22.30;34.70
51029;DHT22;37054;52.054;8.600;2022-11-11T13:19:38;22.30;34.90
51029;DHT22;37054;52.054;8.600;2022-11-11T13:22:07;22.30;35.00
51029;DHT22;37054;52.054;8.600;2022-11-11T13:24:36;22.30;35.00
51029;DHT22;37054;52.054;8.600;2022-11-11T13:27:03;22.30;35.00
51029;DHT22;37054;52.054;8.600;2022-11-11T13:32:04;22.30;34.60
51029;DHT22;37054;52.054;8.600;2022-11-11T13:34:33;22.30;34.40
51029;DHT22;37054;52.054;8.600;2022-11-11T13:37:04;22.30;34.30
51029;DHT22;37054;52.054;8.600;2022-11-11T13:39:32;22.20;34.30
51029;DHT22;37054;52.054;8.600;2022-11-11T13:41:58;22.20;34.20
51029;DHT22;37054;52.054;8.600;2022-11-11T13:44:29;22.20;34.30
51029;DHT22;37054;52.054;8.600;2022-11-11T13:47:06;22.10;34.30
51029;DHT22;37054;52.054;8.600;2022-11-11T13:49:36;22.00;34.30
51029;DHT22;37054;52.054;8.600;2022-11-11T13:52:03;22.00;34.40
51029;DHT22;37054;52.054;8.600;2022-11-11T13:54:38;22.00;34.50
51029;DHT22;37054;52.054;8.600;2022-11-11T13:59:35;21.90;34.60
51029;DHT22;37054;52.054;8.600;2022-11-11T14:12:44;21.60;35.10
51029;DHT22;37054;52.054;8.600;2022-11-11T14:17:53;21.40;35.00
51029;DHT22;37054;52.054;8.600;2022-11-11T14:23:14;21.30;35.10
51029;DHT22;37054;52.054;8.600;2022-11-11T14:25:40;21.20;35.30
51029;DHT22;37054;52.054;8.600;2022-11-11T14:28:22;21.10;35.30
51029;DHT22;37054;52.054;8.600;2022-11-11T14:30:48;21.10;35.40
51029;DHT22;37054;52.054;8.600;2022-11-11T14:33:19;20.90;35.70
51029;DHT22;37054;52.054;8.600;2022-11-11T14:36:01;20.90;35.80
51029;DHT22;37054;52.054;8.600;2022-11-11T14:41:37;20.80;36.10
51029;DHT22;37054;52.054;8.600;2022-11-11T14:52:55;20.50;36.60
51029;DHT22;37054;52.054;8.600;2022-11-11T15:00:24;20.40;36.80
51029;DHT22;37054;52.054;8.600;2022-11-11T15:02:49;20.30;36.90
51029;DHT22;37054;52.054;8.600;2022-11-11T15:10:32;20.10;37.20
51029;DHT22;37054;52.054;8.600;2022-11-11T15:15:45;20.00;37.40
51029;DHT22;37054;52.054;8.600;2022-11-11T15:20:52;19.80;37.60
51029;DHT22;37054;52.054;8.600;2022-11-11T15:23:23;19.80;37.90
51029;DHT22;37054;52.054;8.600;2022-11-11T15:26:01;19.70;38.10
51029;DHT22;37054;52.054;8.600;2022-11-11T15:31:19;19.50;38.30
51029;DHT22;37054;52.054;8.600;2022-11-11T15:42:01;19.00;39.20
51029;DHT22;37054;52.054;8.600;2022-11-11T15:44:27;18.90;39.30
51029;DHT22;37054;52.054;8.600;2022-11-11T15:46:53;18.90;39.30
51029;DHT22;37054;52.054;8.600;2022-11-11T15:49:35;18.80;39.40
51029;DHT22;37054;52.054;8.600;2022-11-11T15:52:01;18.70;39.60
51029;DHT22;37054;52.054;8.600;2022-11-11T15:54:27;18.60;39.50
51029;DHT22;37054;52.054;8.600;2022-11-11T15:56:53;18.60;39.60
51029;DHT22;37054;52.054;8.600;2022-11-11T15:59:23;18.50;39.80
51029;DHT22;37054;52.054;8.600;2022-11-11T16:01:50;18.40;39.90
51029;DHT22;37054;52.054;8.600;2022-11-11T16:04:17;18.30;40.00
51029;DHT22;37054;52.054;8.600;2022-11-11T16:06:43;18.30;40.00
51029;DHT22;37054;52.054;8.600;2022-11-11T16:09:10;18.30;40.00
51029;DHT22;37054;52.054;8.600;2022-11-11T16:11:37;18.20;40.10
51029;DHT22;37054;52.054;8.600;2022-11-11T16:14:03;18.10;40.20
51029;DHT22;37054;52.054;8.600;2022-11-11T16:16:30;18.10;40.30
51029;DHT22;37054;52.054;8.600;2022-11-11T16:21:33;18.00;40.30
51029;DHT22;37054;52.054;8.600;2022-11-11T16:23:59;17.90;40.30
51029;DHT22;37054;52.054;8.600;2022-11-11T16:26:31;17.80;40.30
51029;DHT22;37054;52.054;8.600;2022-11-11T16:28:57;17.70;40.40
51029;DHT22;37054;52.054;8.600;2022-11-11T16:39:30;17.40;40.60
51029;DHT22;37054;52.054;8.600;2022-11-11T16:41:56;17.30;40.50
51029;DHT22;37054;52.054;8.600;2022-11-11T16:44:33;17.20;40.70
51029;DHT22;37054;52.054;8.600;2022-11-11T16:47:00;17.10;40.80
51029;DHT22;37054;52.054;8.600;2022-11-11T16:51:51;17.00;40.90
51029;DHT22;37054;52.054;8.600;2022-11-11T16:54:19;16.90;40.90
51029;DHT22;37054;52.054;8.600;2022-11-11T16:56:47;16.80;41.00
51029;DHT22;37054;52.054;8.600;2022-11-11T16:59:16;16.80;41.00
51029;DHT22;37054;52.054;8.600;2022-11-11T17:01:43;16.70;41.00
51029;DHT22;37054;52.054;8.600;2022-11-11T17:04:10;16.60;41.00
51029;DHT22;37054;52.054;8.600;2022-11-11T17:06:48;16.50;41.10
51029;DHT22;37054;52.054;8.600;2022-11-11T17:09:35;16.50;41.10
51029;DHT22;37054;52.054;8.600;2022-11-11T17:12:01;16.30;41.50
51029;DHT22;37054;52.054;8.600;2022-11-11T17:14:27;16.20;41.60
51029;DHT22;37054;52.054;8.600;2022-11-11T17:16:53;16.20;41.70
51029;DHT22;37054;52.054;8.600;2022-11-11T17:19:19;16.10;41.70
51029;DHT22;37054;52.054;8.600;2022-11-11T17:21:46;16.00;41.60
51029;DHT22;37054;52.054;8.600;2022-11-11T17:24:12;15.90;41.60
51029;DHT22;37054;52.054;8.600;2022-11-11T17:26:39;15.80;41.60
51029;DHT22;37054;52.054;8.600;2022-11-11T17:29:05;15.70;41.70
51029;DHT22;37054;52.054;8.600;2022-11-11T17:31:31;15.60;41.80
51029;DHT22;37054;52.054;8.600;2022-11-11T17:33:56;15.50;42.00
51029;DHT22;37054;52.054;8.600;2022-11-11T17:36:22;15.40;42.10
51029;DHT22;37054;52.054;8.600;2022-11-11T17:38:48;15.30;42.20
51029;DHT22;37054;52.054;8.600;2022-11-11T17:41:14;15.20;42.40
51029;DHT22;37054;52.054;8.600;2022-11-11T17:43:40;15.20;42.50
51029;DHT22;37054;52.054;8.600;2022-11-11T17:46:05;15.10;42.60
51029;DHT22;37054;52.054;8.600;2022-11-11T17:48:31;15.00;42.90
51029;DHT22;37054;52.054;8.600;2022-11-11T17:50:57;15.00;43.20
51029;DHT22;37054;52.054;8.600;2022-11-11T17:53:23;15.00;43.70
51029;DHT22;37054;52.054;8.600;2022-11-11T17:55:49;15.00;43.80
51029;DHT22;37054;52.054;8.600;2022-11-11T17:58:16;15.10;43.80
51029;DHT22;37054;52.054;8.600;2022-11-11T18:00:43;15.10;43.60
51029;DHT22;37054;52.054;8.600;2022-11-11T18:03:10;15.00;43.50